This is the latest recevied weather packets stored in our database for station/object OE3MHU-12. If no packets are shown the sender has not sent any weather packets the latest 10 day(s).
| Time | Temp. | Humidity | Pressure | Rain* | Wind** | Luminosity | Snow |
|---|---|---|---|---|---|---|---|
| 1777589756 | 1.11° C | 70% | 1030.3 hPa | 0 mm | - | - | - |
| 1777587956 | 1.67° C | 69% | 1030.3 hPa | 0 mm | - | - | - |
| 1777586156 | 2.22° C | 67% | 1030.1 hPa | 0 mm | - | - | - |
| 1777584356 | 2.78° C | 65% | 1030.1 hPa | 0 mm | - | - | - |
| 1777582557 | 3.33° C | 63% | 1029.9 hPa | 0 mm | - | - | - |
| 1777580756 | 3.89° C | 60% | 1029.8 hPa | 0 mm | - | - | - |
| 1777578956 | 5° C | 58% | 1029.6 hPa | 0 mm | - | - | - |
| 1777577156 | 6.11° C | 54% | 1029.5 hPa | 0 mm | - | - | - |
| 1777575356 | 7.78° C | 49% | 1029.4 hPa | 0 mm | - | - | - |
| 1777573556 | 10° C | 42% | 1029.1 hPa | 0 mm | - | - | - |
| 1777571757 | 11.67° C | 37% | 1028.9 hPa | 0 mm | - | - | - |
| 1777569957 | 12.22° C | 33% | 1028.7 hPa | 0 mm | - | - | - |
| 1777568157 | 13.33° C | 33% | 1028.8 hPa | 0 mm | - | - | - |
| 1777566357 | 13.89° C | 30% | 1028.6 hPa | 0 mm | - | - | - |
| 1777564557 | 15° C | 29% | 1028.6 hPa | 0 mm | - | - | - |
| 1777562757 | 15° C | 29% | 1028.5 hPa | 0 mm | - | - | - |
| 1777560957 | 15° C | 26% | 1028.7 hPa | 0 mm | - | - | - |
| 1777559157 | 15.56° C | 27% | 1029 hPa | 0 mm | - | - | - |
| 1777557357 | 15° C | 29% | 1029.3 hPa | 0 mm | - | - | - |
| 1777555557 | 14.44° C | 30% | 1029.4 hPa | 0 mm | - | - | - |
| 1777553757 | 13.89° C | 32% | 1029.6 hPa | 0 mm | - | - | - |
| 1777551957 | 13.33° C | 33% | 1030 hPa | 0 mm | - | - | - |
| 1777550157 | 12.78° C | 32% | 1030.3 hPa | 0 mm | - | - | - |
| 1777548358 | 12.22° C | 36% | 1030.7 hPa | 0 mm | - | - | - |
| 1777546558 | 11.67° C | 36% | 1030.9 hPa | 0 mm | - | - | - |
* Rain latest hour (hover to see other rain measurements)
** Current wind speed in m/s (hover to see current wind gust speed)